sensor_id;sensor_type;location;lat;lon;timestamp;pressure;altitude;pressure_sealevel;temperature;humidity
13434;BME280;6789;47.678;9.158;2023-01-25T00:01:05;98176.84;;;2.90;100.00
13434;BME280;6789;47.678;9.158;2023-01-25T00:05:59;98174.47;;;2.96;100.00
13434;BME280;6789;47.678;9.158;2023-01-25T00:10:51;98171.28;;;2.85;100.00
13434;BME280;6789;47.678;9.158;2023-01-25T00:15:43;98164.13;;;2.96;100.00
13434;BME280;6789;47.678;9.158;2023-01-25T00:20:35;98165.25;;;2.84;100.00
13434;BME280;6789;47.678;9.158;2023-01-25T00:25:26;98163.22;;;2.79;100.00
13434;BME280;6789;47.678;9.158;2023-01-25T00:30:18;98161.72;;;2.85;100.00
13434;BME280;6789;47.678;9.158;2023-01-25T00:35:10;98149.72;;;2.84;100.00
13434;BME280;6789;47.678;9.158;2023-01-25T00:40:05;98148.50;;;2.79;100.00
13434;BME280;6789;47.678;9.158;2023-01-25T00:44:56;98144.53;;;2.84;100.00
13434;BME280;6789;47.678;9.158;2023-01-25T00:49:48;98141.25;;;2.82;100.00
13434;BME280;6789;47.678;9.158;2023-01-25T00:54:41;98147.44;;;2.82;100.00
13434;BME280;6789;47.678;9.158;2023-01-25T00:59:33;98143.59;;;2.85;100.00
13434;BME280;6789;47.678;9.158;2023-01-25T01:04:25;98146.44;;;2.82;100.00
13434;BME280;6789;47.678;9.158;2023-01-25T01:09:18;98145.06;;;2.88;100.00
13434;BME280;6789;47.678;9.158;2023-01-25T01:14:11;98154.75;;;2.86;100.00
13434;BME280;6789;47.678;9.158;2023-01-25T01:19:03;98145.38;;;2.85;100.00
13434;BME280;6789;47.678;9.158;2023-01-25T01:23:54;98141.00;;;2.85;100.00
13434;BME280;6789;47.678;9.158;2023-01-25T01:28:47;98153.53;;;2.90;100.00
13434;BME280;6789;47.678;9.158;2023-01-25T01:33:39;98134.19;;;2.84;100.00
13434;BME280;6789;47.678;9.158;2023-01-25T01:38:31;98141.03;;;2.76;100.00
13434;BME280;6789;47.678;9.158;2023-01-25T01:43:24;98135.28;;;2.82;100.00
13434;BME280;6789;47.678;9.158;2023-01-25T01:48:46;98136.66;;;2.77;100.00
13434;BME280;6789;47.678;9.158;2023-01-25T01:53:45;98142.28;;;2.72;100.00
13434;BME280;6789;47.678;9.158;2023-01-25T01:58:40;98134.78;;;2.69;100.00
13434;BME280;6789;47.678;9.158;2023-01-25T02:03:34;98131.22;;;2.70;100.00
13434;BME280;6789;47.678;9.158;2023-01-25T02:08:30;98126.28;;;2.77;100.00
13434;BME280;6789;47.678;9.158;2023-01-25T02:13:23;98129.88;;;2.76;100.00
13434;BME280;6789;47.678;9.158;2023-01-25T02:18:16;98124.13;;;2.82;100.00
13434;BME280;6789;47.678;9.158;2023-01-25T02:23:45;98117.06;;;2.65;100.00
13434;BME280;6789;47.678;9.158;2023-01-25T02:28:46;98122.97;;;2.57;100.00
13434;BME280;6789;47.678;9.158;2023-01-25T02:33:39;98119.56;;;2.57;100.00
13434;BME280;6789;47.678;9.158;2023-01-25T02:38:45;98105.91;;;2.64;100.00
13434;BME280;6789;47.678;9.158;2023-01-25T02:43:38;98112.19;;;2.62;100.00
13434;BME280;6789;47.678;9.158;2023-01-25T02:48:30;98108.13;;;2.59;100.00
13434;BME280;6789;47.678;9.158;2023-01-25T02:53:22;98104.63;;;2.78;100.00
13434;BME280;6789;47.678;9.158;2023-01-25T02:58:13;98112.75;;;2.56;100.00
13434;BME280;6789;47.678;9.158;2023-01-25T03:03:05;98101.03;;;2.52;100.00
13434;BME280;6789;47.678;9.158;2023-01-25T03:07:57;98090.44;;;2.45;100.00
13434;BME280;6789;47.678;9.158;2023-01-25T03:12:48;98084.47;;;2.45;100.00
13434;BME280;6789;47.678;9.158;2023-01-25T03:17:40;98080.22;;;2.53;100.00
13434;BME280;6789;47.678;9.158;2023-01-25T03:22:32;98082.91;;;2.52;100.00
13434;BME280;6789;47.678;9.158;2023-01-25T03:27:24;98071.84;;;2.69;100.00
13434;BME280;6789;47.678;9.158;2023-01-25T03:32:15;98068.75;;;2.56;100.00
13434;BME280;6789;47.678;9.158;2023-01-25T03:37:07;98065.31;;;2.55;100.00
13434;BME280;6789;47.678;9.158;2023-01-25T03:41:59;98069.69;;;2.55;100.00
13434;BME280;6789;47.678;9.158;2023-01-25T03:46:50;98072.44;;;2.53;100.00
13434;BME280;6789;47.678;9.158;2023-01-25T03:51:42;98068.25;;;2.43;100.00
13434;BME280;6789;47.678;9.158;2023-01-25T03:56:35;98067.16;;;2.45;100.00
13434;BME280;6789;47.678;9.158;2023-01-25T04:01:27;98053.91;;;2.48;100.00
13434;BME280;6789;47.678;9.158;2023-01-25T04:06:19;98061.56;;;2.50;100.00
13434;BME280;6789;47.678;9.158;2023-01-25T04:11:11;98067.78;;;2.57;100.00
13434;BME280;6789;47.678;9.158;2023-01-25T04:16:07;98060.19;;;2.46;100.00
13434;BME280;6789;47.678;9.158;2023-01-25T04:20:59;98064.00;;;2.51;100.00
13434;BME280;6789;47.678;9.158;2023-01-25T04:26:01;98051.06;;;2.51;100.00
13434;BME280;6789;47.678;9.158;2023-01-25T04:30:55;98052.38;;;2.55;100.00
13434;BME280;6789;47.678;9.158;2023-01-25T04:35:47;98047.09;;;2.57;100.00
13434;BME280;6789;47.678;9.158;2023-01-25T04:40:39;98045.19;;;2.49;100.00
13434;BME280;6789;47.678;9.158;2023-01-25T04:45:32;98037.56;;;2.48;100.00
13434;BME280;6789;47.678;9.158;2023-01-25T04:50:24;98041.38;;;2.53;100.00
13434;BME280;6789;47.678;9.158;2023-01-25T04:55:16;98043.13;;;2.53;100.00
13434;BME280;6789;47.678;9.158;2023-01-25T05:00:10;98045.44;;;2.56;100.00
13434;BME280;6789;47.678;9.158;2023-01-25T05:05:16;98049.25;;;2.52;100.00
13434;BME280;6789;47.678;9.158;2023-01-25T05:10:09;98042.19;;;2.54;100.00
13434;BME280;6789;47.678;9.158;2023-01-25T05:15:15;98043.00;;;2.54;100.00
13434;BME280;6789;47.678;9.158;2023-01-25T05:20:21;98038.53;;;2.47;100.00
13434;BME280;6789;47.678;9.158;2023-01-25T05:25:27;98039.22;;;2.49;100.00
13434;BME280;6789;47.678;9.158;2023-01-25T05:30:51;98027.47;;;2.54;100.00
13434;BME280;6789;47.678;9.158;2023-01-25T05:35:57;98034.16;;;2.57;100.00
13434;BME280;6789;47.678;9.158;2023-01-25T05:41:03;98030.75;;;2.47;100.00
13434;BME280;6789;47.678;9.158;2023-01-25T05:46:09;98029.63;;;2.59;100.00
13434;BME280;6789;47.678;9.158;2023-01-25T05:51:10;98032.78;;;2.53;100.00
13434;BME280;6789;47.678;9.158;2023-01-25T05:56:16;98020.38;;;2.56;100.00
13434;BME280;6789;47.678;9.158;2023-01-25T06:01:23;98023.34;;;2.61;100.00
13434;BME280;6789;47.678;9.158;2023-01-25T06:06:29;98023.78;;;2.57;100.00
13434;BME280;6789;47.678;9.158;2023-01-25T06:11:34;98025.84;;;2.53;100.00
13434;BME280;6789;47.678;9.158;2023-01-25T06:16:40;98032.69;;;2.45;100.00
13434;BME280;6789;47.678;9.158;2023-01-25T06:21:46;98023.94;;;2.46;100.00
13434;BME280;6789;47.678;9.158;2023-01-25T06:26:52;98021.72;;;2.60;100.00
13434;BME280;6789;47.678;9.158;2023-01-25T06:31:58;98027.06;;;2.49;100.00
13434;BME280;6789;47.678;9.158;2023-01-25T06:37:04;98027.91;;;2.50;100.00
13434;BME280;6789;47.678;9.158;2023-01-25T06:42:09;98030.91;;;2.45;100.00
13434;BME280;6789;47.678;9.158;2023-01-25T06:47:16;98037.19;;;2.43;100.00
13434;BME280;6789;47.678;9.158;2023-01-25T06:52:23;98026.16;;;2.41;100.00
13434;BME280;6789;47.678;9.158;2023-01-25T06:57:44;98027.59;;;2.53;100.00
13434;BME280;6789;47.678;9.158;2023-01-25T07:02:50;98030.94;;;2.36;100.00
13434;BME280;6789;47.678;9.158;2023-01-25T07:07:49;98017.72;;;2.39;100.00
13434;BME280;6789;47.678;9.158;2023-01-25T07:12:56;98021.66;;;2.43;100.00
13434;BME280;6789;47.678;9.158;2023-01-25T07:18:03;98011.72;;;2.38;100.00
13434;BME280;6789;47.678;9.158;2023-01-25T07:23:07;98009.56;;;2.34;100.00
13434;BME280;6789;47.678;9.158;2023-01-25T07:28:21;98000.69;;;2.36;100.00
13434;BME280;6789;47.678;9.158;2023-01-25T07:33:26;98000.69;;;2.36;100.00
13434;BME280;6789;47.678;9.158;2023-01-25T07:38:33;97993.88;;;2.45;100.00
13434;BME280;6789;47.678;9.158;2023-01-25T07:43:39;97994.84;;;2.44;100.00
13434;BME280;6789;47.678;9.158;2023-01-25T07:48:48;97992.50;;;2.41;100.00
13434;BME280;6789;47.678;9.158;2023-01-25T07:53:43;98004.91;;;2.37;100.00
13434;BME280;6789;47.678;9.158;2023-01-25T07:58:52;98001.34;;;2.48;100.00
13434;BME280;6789;47.678;9.158;2023-01-25T08:04:01;98003.97;;;2.38;100.00
13434;BME280;6789;47.678;9.158;2023-01-25T08:09:15;98002.59;;;2.44;100.00
13434;BME280;6789;47.678;9.158;2023-01-25T08:14:24;98001.72;;;2.26;100.00
13434;BME280;6789;47.678;9.158;2023-01-25T08:19:33;97987.53;;;2.30;100.00
13434;BME280;6789;47.678;9.158;2023-01-25T08:24:39;97984.63;;;2.33;100.00
13434;BME280;6789;47.678;9.158;2023-01-25T08:29:57;97974.97;;;2.35;100.00
13434;BME280;6789;47.678;9.158;2023-01-25T08:35:03;97971.13;;;2.39;100.00
13434;BME280;6789;47.678;9.158;2023-01-25T08:40:10;97979.56;;;2.41;100.00
13434;BME280;6789;47.678;9.158;2023-01-25T08:45:18;97969.91;;;2.43;100.00
13434;BME280;6789;47.678;9.158;2023-01-25T08:50:28;97971.13;;;2.39;100.00
13434;BME280;6789;47.678;9.158;2023-01-25T08:55:34;97956.28;;;2.41;100.00
13434;BME280;6789;47.678;9.158;2023-01-25T09:00:44;97958.13;;;2.48;100.00
13434;BME280;6789;47.678;9.158;2023-01-25T09:05:53;97946.13;;;2.57;100.00
13434;BME280;6789;47.678;9.158;2023-01-25T09:11:06;97939.97;;;2.58;100.00
13434;BME280;6789;47.678;9.158;2023-01-25T09:16:24;97928.75;;;2.67;100.00
13434;BME280;6789;47.678;9.158;2023-01-25T09:21:43;97926.16;;;2.67;100.00
13434;BME280;6789;47.678;9.158;2023-01-25T09:26:49;97931.34;;;2.40;100.00
13434;BME280;6789;47.678;9.158;2023-01-25T09:31:55;97929.19;;;2.45;100.00
13434;BME280;6789;47.678;9.158;2023-01-25T09:37:01;97934.06;;;2.48;100.00
13434;BME280;6789;47.678;9.158;2023-01-25T09:53:21;97929.25;;;2.53;100.00
13434;BME280;6789;47.678;9.158;2023-01-25T09:58:34;97922.16;;;2.55;100.00
13434;BME280;6789;47.678;9.158;2023-01-25T10:03:55;97928.75;;;2.67;100.00
13434;BME280;6789;47.678;9.158;2023-01-25T10:09:33;97924.47;;;2.75;100.00
13434;BME280;6789;47.678;9.158;2023-01-25T10:14:42;97922.25;;;2.63;100.00
13434;BME280;6789;47.678;9.158;2023-01-25T10:20:14;97913.78;;;2.87;100.00
13434;BME280;6789;47.678;9.158;2023-01-25T10:25:44;97920.63;;;2.62;100.00
13434;BME280;6789;47.678;9.158;2023-01-25T10:31:26;97915.44;;;2.62;100.00
13434;BME280;6789;47.678;9.158;2023-01-25T10:36:37;97918.41;;;2.67;100.00
13434;BME280;6789;47.678;9.158;2023-01-25T10:42:04;97916.41;;;2.95;100.00
13434;BME280;6789;47.678;9.158;2023-01-25T10:48:06;97913.47;;;2.90;100.00
13434;BME280;6789;47.678;9.158;2023-01-25T10:53:37;97909.66;;;2.50;100.00
13434;BME280;6789;47.678;9.158;2023-01-25T10:59:26;97898.28;;;2.61;100.00
13434;BME280;6789;47.678;9.158;2023-01-25T11:04:35;97895.09;;;2.67;100.00
13434;BME280;6789;47.678;9.158;2023-01-25T11:09:44;97888.44;;;2.64;100.00
13434;BME280;6789;47.678;9.158;2023-01-25T11:15:22;97886.59;;;2.57;100.00
13434;BME280;6789;47.678;9.158;2023-01-25T11:20:31;97876.53;;;2.54;100.00
13434;BME280;6789;47.678;9.158;2023-01-25T11:25:42;97879.03;;;2.46;100.00
13434;BME280;6789;47.678;9.158;2023-01-25T11:31:23;97863.81;;;2.43;100.00
13434;BME280;6789;47.678;9.158;2023-01-25T11:59:04;97829.56;;;2.49;100.00
13434;BME280;6789;47.678;9.158;2023-01-25T12:27:28;97783.78;;;2.49;100.00
13434;BME280;6789;47.678;9.158;2023-01-25T12:32:44;97775.97;;;2.41;100.00
13434;BME280;6789;47.678;9.158;2023-01-25T12:38:55;97764.94;;;2.39;100.00
13434;BME280;6789;47.678;9.158;2023-01-25T12:49:52;97757.34;;;2.38;100.00
13434;BME280;6789;47.678;9.158;2023-01-25T12:55:06;97744.09;;;2.41;100.00
13434;BME280;6789;47.678;9.158;2023-01-25T13:11:44;97736.22;;;2.68;100.00
13434;BME280;6789;47.678;9.158;2023-01-25T13:16:53;97727.13;;;2.64;100.00
13434;BME280;6789;47.678;9.158;2023-01-25T13:22:03;97737.78;;;2.61;100.00
13434;BME280;6789;47.678;9.158;2023-01-25T13:27:39;97719.91;;;2.50;100.00
13434;BME280;6789;47.678;9.158;2023-01-25T13:32:52;97723.75;;;2.46;100.00
13434;BME280;6789;47.678;9.158;2023-01-25T13:48:25;97708.22;;;2.46;100.00
13434;BME280;6789;47.678;9.158;2023-01-25T13:53:33;97699.44;;;2.39;100.00
13434;BME280;6789;47.678;9.158;2023-01-25T13:58:45;97704.47;;;2.40;100.00
13434;BME280;6789;47.678;9.158;2023-01-25T14:04:00;97696.25;;;2.45;99.96
13434;BME280;6789;47.678;9.158;2023-01-25T14:09:19;97694.13;;;2.40;99.73
13434;BME280;6789;47.678;9.158;2023-01-25T14:14:46;97689.28;;;2.63;99.13
13434;BME280;6789;47.678;9.158;2023-01-25T14:19:55;97678.94;;;2.71;97.66
13434;BME280;6789;47.678;9.158;2023-01-25T14:25:14;97677.81;;;2.65;97.16
13434;BME280;6789;47.678;9.158;2023-01-25T14:30:40;97682.41;;;2.54;98.05
13434;BME280;6789;47.678;9.158;2023-01-25T14:35:50;97678.78;;;2.47;98.42
13434;BME280;6789;47.678;9.158;2023-01-25T14:46:38;97686.13;;;2.34;100.00
13434;BME280;6789;47.678;9.158;2023-01-25T14:51:52;97681.44;;;2.29;100.00
13434;BME280;6789;47.678;9.158;2023-01-25T14:57:06;97672.56;;;2.32;100.00
13434;BME280;6789;47.678;9.158;2023-01-25T15:02:44;97664.66;;;2.16;100.00
13434;BME280;6789;47.678;9.158;2023-01-25T15:08:12;97651.28;;;2.20;100.00
13434;BME280;6789;47.678;9.158;2023-01-25T15:13:43;97653.94;;;2.28;100.00
13434;BME280;6789;47.678;9.158;2023-01-25T15:19:42;97643.06;;;2.25;100.00
13434;BME280;6789;47.678;9.158;2023-01-25T15:24:56;97646.69;;;2.14;100.00
13434;BME280;6789;47.678;9.158;2023-01-25T15:30:03;97635.56;;;2.39;100.00
13434;BME280;6789;47.678;9.158;2023-01-25T15:35:22;97639.38;;;2.10;100.00
13434;BME280;6789;47.678;9.158;2023-01-25T15:40:39;97638.94;;;2.14;100.00
13434;BME280;6789;47.678;9.158;2023-01-25T15:45:49;97626.88;;;2.23;100.00
13434;BME280;6789;47.678;9.158;2023-01-25T15:50:49;97630.81;;;2.10;100.00
13434;BME280;6789;47.678;9.158;2023-01-25T15:56:19;97639.97;;;2.04;100.00
13434;BME280;6789;47.678;9.158;2023-01-25T16:01:28;97627.41;;;2.09;100.00
13434;BME280;6789;47.678;9.158;2023-01-25T16:06:46;97627.13;;;2.12;100.00
13434;BME280;6789;47.678;9.158;2023-01-25T16:11:58;97626.75;;;2.07;100.00
13434;BME280;6789;47.678;9.158;2023-01-25T16:17:10;97616.53;;;2.06;100.00
13434;BME280;6789;47.678;9.158;2023-01-25T16:22:22;97620.84;;;1.97;100.00
13434;BME280;6789;47.678;9.158;2023-01-25T16:27:29;97601.78;;;1.98;100.00
13434;BME280;6789;47.678;9.158;2023-01-25T16:32:42;97612.72;;;2.10;100.00
13434;BME280;6789;47.678;9.158;2023-01-25T16:37:51;97615.03;;;1.95;100.00
13434;BME280;6789;47.678;9.158;2023-01-25T16:43:19;97608.44;;;1.83;100.00
13434;BME280;6789;47.678;9.158;2023-01-25T16:48:47;97596.34;;;2.01;100.00
13434;BME280;6789;47.678;9.158;2023-01-25T16:53:56;97595.75;;;1.90;100.00
13434;BME280;6789;47.678;9.158;2023-01-25T16:59:09;97588.88;;;1.98;100.00
13434;BME280;6789;47.678;9.158;2023-01-25T17:04:30;97577.84;;;1.96;100.00
13434;BME280;6789;47.678;9.158;2023-01-25T17:09:37;97574.63;;;1.94;100.00
13434;BME280;6789;47.678;9.158;2023-01-25T17:14:44;97563.88;;;2.07;100.00
13434;BME280;6789;47.678;9.158;2023-01-25T17:19:53;97556.53;;;1.94;100.00
13434;BME280;6789;47.678;9.158;2023-01-25T17:25:21;97558.53;;;2.08;100.00
13434;BME280;6789;47.678;9.158;2023-01-25T17:30:46;97557.53;;;2.01;100.00
13434;BME280;6789;47.678;9.158;2023-01-25T17:35:52;97550.50;;;2.11;100.00
13434;BME280;6789;47.678;9.158;2023-01-25T17:41:09;97540.75;;;2.05;100.00
13434;BME280;6789;47.678;9.158;2023-01-25T17:46:23;97535.56;;;2.05;100.00
13434;BME280;6789;47.678;9.158;2023-01-25T17:51:33;97522.31;;;2.08;100.00
13434;BME280;6789;47.678;9.158;2023-01-25T17:56:42;97523.72;;;2.20;100.00
13434;BME280;6789;47.678;9.158;2023-01-25T18:01:48;97518.28;;;2.06;100.00
13434;BME280;6789;47.678;9.158;2023-01-25T18:06:55;97506.19;;;2.14;100.00
13434;BME280;6789;47.678;9.158;2023-01-25T18:12:10;97509.78;;;2.21;100.00
13434;BME280;6789;47.678;9.158;2023-01-25T18:17:37;97502.03;;;2.21;100.00
13434;BME280;6789;47.678;9.158;2023-01-25T18:22:44;97499.09;;;2.16;100.00
13434;BME280;6789;47.678;9.158;2023-01-25T18:27:50;97490.72;;;2.22;100.00
13434;BME280;6789;47.678;9.158;2023-01-25T18:33:02;97488.09;;;2.14;99.47
13434;BME280;6789;47.678;9.158;2023-01-25T18:38:09;97485.94;;;2.02;100.00
13434;BME280;6789;47.678;9.158;2023-01-25T18:49:38;97474.75;;;1.93;100.00
13434;BME280;6789;47.678;9.158;2023-01-25T18:54:55;97480.19;;;1.82;100.00
13434;BME280;6789;47.678;9.158;2023-01-25T19:00:09;97473.38;;;1.81;100.00
13434;BME280;6789;47.678;9.158;2023-01-25T19:05:24;97465.34;;;1.92;100.00
13434;BME280;6789;47.678;9.158;2023-01-25T19:11:01;97470.03;;;1.63;100.00
13434;BME280;6789;47.678;9.158;2023-01-25T19:16:20;97469.09;;;1.72;100.00
13434;BME280;6789;47.678;9.158;2023-01-25T19:21:30;97447.91;;;1.69;100.00
13434;BME280;6789;47.678;9.158;2023-01-25T19:26:36;97446.50;;;1.74;100.00
13434;BME280;6789;47.678;9.158;2023-01-25T19:31:42;97436.22;;;1.82;99.96
13434;BME280;6789;47.678;9.158;2023-01-25T19:36:48;97441.03;;;1.77;100.00
13434;BME280;6789;47.678;9.158;2023-01-25T19:41:55;97435.97;;;1.93;100.00
13434;BME280;6789;47.678;9.158;2023-01-25T19:47:01;97432.47;;;1.77;99.75
13434;BME280;6789;47.678;9.158;2023-01-25T19:52:07;97425.94;;;1.65;100.00
13434;BME280;6789;47.678;9.158;2023-01-25T19:57:18;97415.16;;;1.69;99.91
13434;BME280;6789;47.678;9.158;2023-01-25T20:02:25;97407.69;;;1.66;99.31
13434;BME280;6789;47.678;9.158;2023-01-25T20:07:32;97410.84;;;1.78;98.88
13434;BME280;6789;47.678;9.158;2023-01-25T20:12:38;97400.94;;;1.73;99.32
13434;BME280;6789;47.678;9.158;2023-01-25T20:17:43;97396.91;;;1.71;99.88
13434;BME280;6789;47.678;9.158;2023-01-25T20:22:53;97395.84;;;1.81;99.43
13434;BME280;6789;47.678;9.158;2023-01-25T20:27:59;97386.78;;;1.85;99.40
13434;BME280;6789;47.678;9.158;2023-01-25T20:33:05;97390.66;;;1.81;99.22
13434;BME280;6789;47.678;9.158;2023-01-25T20:38:12;97386.41;;;1.72;98.97
13434;BME280;6789;47.678;9.158;2023-01-25T20:43:18;97387.34;;;1.71;99.85
13434;BME280;6789;47.678;9.158;2023-01-25T20:48:24;97383.13;;;1.62;100.00
13434;BME280;6789;47.678;9.158;2023-01-25T20:53:32;97379.03;;;1.52;100.00
13434;BME280;6789;47.678;9.158;2023-01-25T20:58:40;97377.00;;;1.63;100.00
13434;BME280;6789;47.678;9.158;2023-01-25T21:03:48;97376.34;;;1.61;100.00
13434;BME280;6789;47.678;9.158;2023-01-25T21:09:21;97375.66;;;1.59;100.00
13434;BME280;6789;47.678;9.158;2023-01-25T21:14:29;97371.63;;;1.57;100.00
13434;BME280;6789;47.678;9.158;2023-01-25T21:19:47;97358.59;;;1.66;100.00
13434;BME280;6789;47.678;9.158;2023-01-25T21:24:53;97359.44;;;1.75;100.00
13434;BME280;6789;47.678;9.158;2023-01-25T21:29:59;97354.13;;;1.76;100.00
13434;BME280;6789;47.678;9.158;2023-01-25T21:35:07;97353.75;;;1.71;99.67
13434;BME280;6789;47.678;9.158;2023-01-25T21:40:04;97343.28;;;1.73;99.13
13434;BME280;6789;47.678;9.158;2023-01-25T21:45:11;97347.63;;;1.72;99.06
13434;BME280;6789;47.678;9.158;2023-01-25T21:50:46;97344.25;;;1.72;98.95
13434;BME280;6789;47.678;9.158;2023-01-25T21:56:10;97332.44;;;1.69;99.04
13434;BME280;6789;47.678;9.158;2023-01-25T22:01:16;97330.50;;;1.63;98.96
13434;BME280;6789;47.678;9.158;2023-01-25T22:06:24;97328.53;;;1.65;99.31
13434;BME280;6789;47.678;9.158;2023-01-25T22:11:32;97331.59;;;1.61;99.67
13434;BME280;6789;47.678;9.158;2023-01-25T22:16:38;97327.63;;;1.74;98.39
13434;BME280;6789;47.678;9.158;2023-01-25T22:21:45;97324.72;;;1.77;98.72
13434;BME280;6789;47.678;9.158;2023-01-25T22:27:57;97316.16;;;1.77;97.52
13434;BME280;6789;47.678;9.158;2023-01-25T22:33:03;97320.03;;;1.81;98.08
13434;BME280;6789;47.678;9.158;2023-01-25T22:38:09;97321.41;;;1.59;98.53
13434;BME280;6789;47.678;9.158;2023-01-25T22:43:15;97311.41;;;1.64;97.80
13434;BME280;6789;47.678;9.158;2023-01-25T22:48:20;97314.09;;;1.47;98.54
13434;BME280;6789;47.678;9.158;2023-01-25T22:53:17;97305.25;;;1.57;98.12
13434;BME280;6789;47.678;9.158;2023-01-25T22:58:22;97298.00;;;1.61;98.46
13434;BME280;6789;47.678;9.158;2023-01-25T23:03:28;97287.22;;;1.73;98.13
13434;BME280;6789;47.678;9.158;2023-01-25T23:08:21;97279.81;;;1.70;98.03
13434;BME280;6789;47.678;9.158;2023-01-25T23:13:28;97271.91;;;1.80;97.66
13434;BME280;6789;47.678;9.158;2023-01-25T23:18:22;97272.34;;;1.67;98.37
13434;BME280;6789;47.678;9.158;2023-01-25T23:23:47;97269.13;;;1.73;97.86
13434;BME280;6789;47.678;9.158;2023-01-25T23:28:56;97253.59;;;1.57;99.12
13434;BME280;6789;47.678;9.158;2023-01-25T23:34:04;97248.72;;;1.54;98.63
13434;BME280;6789;47.678;9.158;2023-01-25T23:39:12;97245.97;;;1.56;98.39
13434;BME280;6789;47.678;9.158;2023-01-25T23:44:18;97248.28;;;1.34;99.96
13434;BME280;6789;47.678;9.158;2023-01-25T23:49:23;97237.97;;;1.34;100.00
13434;BME280;6789;47.678;9.158;2023-01-25T23:54:29;97236.72;;;1.38;100.00
13434;BME280;6789;47.678;9.158;2023-01-25T23:59:36;97232.19;;;1.39;100.00
